Time;durP1;ratioP1;P1;durP2;ratioP2;P2;SDS_P1;SDS_P2;PMS_P1;PMS_P2;Temp;Humidity;BMP_temperature;BMP_pressure;BME280_temperature;BME280_humidity;BME280_pressure;Samples;Min_cycle;Max_cycle;Signal;HPM_P1;HPM_P2
2021/12/10 00:00:20;;;;;;;9.90;7.70;;;15.00;53.10;;;;;;5017635;28;21024;-80
2021/12/10 00:02:47;;;;;;;12.07;7.80;;;15.00;53.00;;;;;;5018897;28;20535;-80
2021/12/10 00:05:17;;;;;;;13.50;8.23;;;15.00;53.10;;;;;;5013222;28;20441;-80
2021/12/10 00:07:46;;;;;;;9.97;7.70;;;15.00;53.10;;;;;;5016574;28;20575;-80
2021/12/10 00:10:15;;;;;;;14.70;7.83;;;15.00;53.10;;;;;;5013600;28;20508;-80
2021/12/10 00:12:50;;;;;;;11.30;7.60;;;15.00;53.10;;;;;;5017541;28;20559;-81
2021/12/10 00:15:20;;;;;;;10.60;7.90;;;15.00;53.20;;;;;;5014977;28;20479;-81
2021/12/10 00:17:48;;;;;;;11.47;8.33;;;15.00;53.10;;;;;;5016027;28;20516;-81
2021/12/10 00:20:16;;;;;;;11.43;7.73;;;15.00;53.10;;;;;;5016200;28;20531;-81
2021/12/10 00:22:52;;;;;;;11.43;7.50;;;15.00;53.10;;;;;;5015449;28;20492;-80
2021/12/10 00:25:25;;;;;;;10.63;7.33;;;15.00;53.00;;;;;;5016063;28;20482;-81
2021/12/10 00:27:55;;;;;;;10.10;7.20;;;15.00;53.10;;;;;;5016270;28;20464;-80
2021/12/10 00:30:27;;;;;;;9.70;7.33;;;15.00;53.20;;;;;;5017030;28;20523;-81
2021/12/10 00:33:02;;;;;;;14.67;8.73;;;15.00;53.20;;;;;;5014324;28;20544;-81
2021/12/10 00:35:32;;;;;;;9.10;6.90;;;15.00;53.30;;;;;;4996775;28;20456;-81
2021/12/10 00:38:00;;;;;;;8.63;6.20;;;15.00;53.10;;;;;;5006902;28;20472;-81
2021/12/10 00:40:28;;;;;;;7.67;6.30;;;15.00;53.20;;;;;;5016416;28;20519;-81
2021/12/10 00:42:57;;;;;;;8.93;6.80;;;15.00;53.20;;;;;;5013933;28;20520;-81
2021/12/10 00:45:26;;;;;;;7.57;6.10;;;15.10;53.40;;;;;;5013146;28;20487;-81
2021/12/10 00:47:54;;;;;;;11.03;6.40;;;15.00;53.30;;;;;;5015491;28;20476;-81
2021/12/10 00:50:24;;;;;;;7.83;6.67;;;15.00;53.40;;;;;;5016246;28;20445;-81
2021/12/10 00:52:53;;;;;;;8.30;6.03;;;15.00;53.40;;;;;;5015082;28;20555;-81
2021/12/10 00:55:21;;;;;;;10.97;6.63;;;15.00;53.30;;;;;;5015852;28;20519;-81
2021/12/10 00:57:49;;;;;;;8.73;6.50;;;15.00;53.40;;;;;;5016316;28;20943;-81
2021/12/10 01:00:24;;;;;;;8.03;6.23;;;15.10;53.50;;;;;;5017077;28;20527;-81
2021/12/10 01:02:52;;;;;;;10.57;6.87;;;15.00;53.40;;;;;;5014376;28;20475;-81
2021/12/10 01:05:19;;;;;;;7.97;6.13;;;15.10;53.50;;;;;;5017597;28;20509;-81
2021/12/10 01:07:47;;;;;;;7.73;6.20;;;15.00;53.40;;;;;;5016295;28;20559;-81
2021/12/10 01:10:18;;;;;;;9.80;6.80;;;15.00;53.40;;;;;;5016037;28;20437;-81
2021/12/10 01:12:48;;;;;;;10.80;6.80;;;15.00;53.40;;;;;;5016394;28;20555;-81
2021/12/10 01:15:37;;;;;;;9.70;6.60;;;15.00;53.40;;;;;;5014590;28;20472;-81
2021/12/10 01:23:50;;;;;;;10.07;6.47;;;15.00;53.50;;;;;;5016174;28;20469;-82
2021/12/10 01:26:36;;;;;;;9.73;6.60;;;15.00;53.40;;;;;;5016913;28;20467;-81
2021/12/10 01:29:04;;;;;;;8.23;5.90;;;15.00;53.40;;;;;;5016813;28;20554;-82
2021/12/10 01:31:33;;;;;;;10.03;6.90;;;15.00;53.50;;;;;;5015961;28;20444;-81
2021/12/10 01:34:01;;;;;;;8.37;6.70;;;15.00;53.50;;;;;;5015254;28;20559;-81
2021/12/10 01:36:29;;;;;;;9.40;6.40;;;15.00;53.60;;;;;;5013912;28;20460;-81
2021/12/10 01:38:57;;;;;;;8.50;6.57;;;15.00;53.50;;;;;;5014817;28;20455;-81
2021/12/10 01:41:28;;;;;;;7.40;5.70;;;15.00;53.60;;;;;;5015588;28;20497;-81
2021/12/10 01:44:01;;;;;;;8.30;6.80;;;15.00;53.70;;;;;;5015353;28;20524;-81
2021/12/10 01:46:31;;;;;;;8.40;6.60;;;15.00;53.70;;;;;;5014519;28;20485;-81
2021/12/10 01:49:02;;;;;;;7.10;6.23;;;15.00;53.70;;;;;;5077752;28;20501;-81
2021/12/10 01:51:33;;;;;;;7.13;6.00;;;15.00;53.70;;;;;;5110068;28;20527;-81
2021/12/10 01:54:05;;;;;;;9.03;6.40;;;15.00;53.80;;;;;;5014695;28;20560;-82
2021/12/10 01:56:34;;;;;;;8.20;5.90;;;15.10;53.80;;;;;;5014116;28;20516;-81
2021/12/10 01:59:02;;;;;;;9.30;6.20;;;15.10;53.90;;;;;;5015321;28;20523;-82
2021/12/10 02:01:33;;;;;;;8.40;6.10;;;15.10;53.80;;;;;;5015711;28;20472;-81
2021/12/10 02:04:05;;;;;;;7.10;5.70;;;15.00;53.70;;;;;;5016079;28;20457;-81
2021/12/10 02:06:32;;;;;;;7.67;6.00;;;15.10;53.90;;;;;;5013191;28;20516;-82
2021/12/10 02:09:00;;;;;;;6.00;5.40;;;15.10;53.80;;;;;;5012358;28;20515;-81
2021/12/10 02:11:28;;;;;;;11.17;6.73;;;15.10;53.80;;;;;;5015408;28;20543;-81
2021/12/10 02:13:56;;;;;;;8.03;6.40;;;15.10;53.70;;;;;;5014288;28;20555;-81
2021/12/10 02:16:24;;;;;;;8.07;5.87;;;15.10;53.80;;;;;;5014777;28;20440;-81
2021/12/10 02:18:52;;;;;;;7.60;6.10;;;15.10;53.80;;;;;;5014894;28;20432;-81
2021/12/10 02:21:21;;;;;;;10.20;6.30;;;15.10;53.80;;;;;;5009534;28;20523;-79
2021/12/10 02:23:55;;;;;;;7.40;5.50;;;15.10;53.80;;;;;;5011008;28;20471;-79
2021/12/10 02:26:24;;;;;;;8.37;6.43;;;15.10;53.80;;;;;;5010081;28;20527;-80
2021/12/10 02:28:52;;;;;;;8.77;6.03;;;15.10;53.80;;;;;;5010165;28;20499;-79
2021/12/10 02:31:20;;;;;;;11.33;6.43;;;15.10;53.90;;;;;;5010851;28;20502;-79
2021/12/10 02:33:48;;;;;;;7.13;5.53;;;15.10;53.90;;;;;;5001746;28;20476;-80
2021/12/10 02:36:16;;;;;;;7.53;6.03;;;15.10;53.90;;;;;;5008613;28;20506;-80
2021/12/10 02:38:47;;;;;;;7.80;5.30;;;15.10;53.90;;;;;;5007647;28;20455;-80
2021/12/10 02:41:16;;;;;;;9.30;6.33;;;15.10;53.90;;;;;;5009267;28;20519;-80
2021/12/10 02:43:43;;;;;;;6.73;6.03;;;15.10;53.90;;;;;;5008227;28;20480;-79
2021/12/10 02:46:11;;;;;;;7.57;5.90;;;15.10;53.90;;;;;;5008526;28;20457;-81
2021/12/10 02:48:39;;;;;;;8.07;5.63;;;15.10;54.50;;;;;;5007465;28;20567;-80
2021/12/10 02:51:08;;;;;;;7.13;6.07;;;15.10;53.90;;;;;;5009632;28;20428;-79
2021/12/10 02:53:41;;;;;;;7.60;6.07;;;15.10;53.90;;;;;;5006854;28;20482;-78
2021/12/10 02:56:11;;;;;;;6.17;5.57;;;15.10;53.90;;;;;;5008464;28;20555;-79
2021/12/10 02:58:39;;;;;;;8.73;6.40;;;15.10;53.90;;;;;;5007758;28;20536;-78
2021/12/10 03:01:11;;;;;;;7.20;5.60;;;15.10;53.90;;;;;;5015294;28;20504;-79
2021/12/10 03:03:40;;;;;;;8.07;6.00;;;15.10;53.80;;;;;;5008260;28;20497;-79
2021/12/10 03:06:10;;;;;;;7.73;6.10;;;15.00;53.80;;;;;;5008828;28;20526;-79
2021/12/10 03:08:39;;;;;;;12.20;5.73;;;15.10;53.90;;;;;;5006823;28;20516;-79
2021/12/10 03:11:08;;;;;;;10.43;5.87;;;15.10;54.00;;;;;;5007778;28;20452;-79
2021/12/10 03:13:37;;;;;;;9.20;6.23;;;15.10;53.90;;;;;;5004734;28;20495;-79
2021/12/10 03:16:06;;;;;;;7.10;6.20;;;15.10;54.00;;;;;;5006708;28;20448;-79
2021/12/10 03:18:34;;;;;;;8.17;6.57;;;15.10;53.90;;;;;;5009075;28;20502;-80
2021/12/10 03:21:03;;;;;;;8.77;6.03;;;15.10;54.00;;;;;;5009187;28;20451;-80
2021/12/10 03:23:31;;;;;;;8.23;5.60;;;15.00;53.80;;;;;;5007030;28;20495;-80
2021/12/10 03:25:59;;;;;;;6.20;5.60;;;15.00;53.90;;;;;;5009337;28;20437;-78
2021/12/10 03:28:27;;;;;;;7.00;6.00;;;15.00;54.00;;;;;;5008869;28;20459;-80
2021/12/10 03:30:56;;;;;;;7.30;5.50;;;15.00;54.00;;;;;;5008206;28;20567;-79
2021/12/10 03:33:25;;;;;;;6.40;5.47;;;15.00;54.00;;;;;;5009566;28;20480;-78
2021/12/10 03:35:53;;;;;;;7.00;5.73;;;15.00;54.10;;;;;;5013386;28;20487;-80
2021/12/10 03:38:22;;;;;;;7.00;5.13;;;15.10;54.00;;;;;;5009751;28;20531;-79
2021/12/10 03:40:50;;;;;;;7.07;5.77;;;15.10;54.10;;;;;;5007814;28;20448;-77
2021/12/10 03:43:18;;;;;;;6.30;5.20;;;15.10;54.00;;;;;;5004353;28;20473;-78
2021/12/10 03:45:48;;;;;;;6.07;5.47;;;15.10;54.10;;;;;;5005338;28;20450;-78
2021/12/10 03:48:20;;;;;;;6.57;5.80;;;15.10;54.00;;;;;;5004834;28;20455;-78
2021/12/10 03:50:48;;;;;;;7.07;5.30;;;15.10;54.10;;;;;;5005901;28;20499;-78
2021/12/10 03:53:16;;;;;;;6.20;5.53;;;15.10;54.70;;;;;;5007739;28;20575;-79
2021/12/10 03:55:44;;;;;;;8.20;5.97;;;15.10;54.00;;;;;;5007075;28;20448;-77
2021/12/10 03:58:12;;;;;;;7.40;5.60;;;15.10;54.10;;;;;;5003655;28;20454;-78
2021/12/10 04:00:42;;;;;;;8.83;6.17;;;15.10;54.00;;;;;;5006438;28;20437;-78
2021/12/10 04:03:10;;;;;;;8.93;5.67;;;15.10;54.20;;;;;;5006349;28;20472;-78
2021/12/10 04:05:40;;;;;;;5.73;5.13;;;15.00;54.10;;;;;;5006825;28;20444;-78
2021/12/10 04:08:08;;;;;;;9.63;6.07;;;15.10;54.10;;;;;;5004208;28;20455;-78
2021/12/10 04:10:36;;;;;;;6.13;5.30;;;15.00;54.00;;;;;;5005265;28;20480;-77
2021/12/10 04:13:05;;;;;;;6.93;4.90;;;15.00;54.10;;;;;;5002920;28;20498;-78
2021/12/10 04:15:35;;;;;;;6.30;5.70;;;15.00;54.20;;;;;;5002989;28;20453;-78
2021/12/10 04:18:03;;;;;;;6.43;5.70;;;15.00;54.10;;;;;;5003174;28;20961;-78
2021/12/10 04:20:31;;;;;;;5.40;4.90;;;15.00;54.20;;;;;;5003451;28;20428;-78
2021/12/10 04:23:01;;;;;;;7.87;5.30;;;15.00;54.10;;;;;;5005327;28;20475;-79
2021/12/10 04:25:29;;;;;;;5.90;5.30;;;15.00;54.10;;;;;;5004642;28;21168;-78
2021/12/10 04:28:00;;;;;;;6.30;5.10;;;15.00;54.20;;;;;;5002938;28;20891;-78
2021/12/10 04:30:35;;;;;;;8.00;4.90;;;15.00;54.20;;;;;;5002633;28;20482;-78
2021/12/10 04:33:03;;;;;;;8.10;5.43;;;15.00;54.20;;;;;;5006266;28;20531;-78
2021/12/10 04:35:31;;;;;;;5.83;5.13;;;15.00;54.20;;;;;;5013036;28;20458;-79
2021/12/10 04:38:00;;;;;;;6.37;5.23;;;15.00;54.20;;;;;;5008105;28;20476;-79
2021/12/10 04:40:28;;;;;;;5.93;4.60;;;15.00;54.20;;;;;;5005345;28;20476;-77
2021/12/10 04:42:56;;;;;;;6.10;4.97;;;15.00;54.20;;;;;;5014903;28;20904;-79
2021/12/10 04:45:24;;;;;;;7.77;4.97;;;15.00;54.20;;;;;;5012603;28;20511;-77
2021/12/10 04:47:52;;;;;;;6.20;5.27;;;15.00;54.20;;;;;;5014119;28;20476;-78
2021/12/10 04:50:21;;;;;;;5.53;5.00;;;15.00;54.20;;;;;;5014524;28;20587;-78
2021/12/10 04:52:49;;;;;;;5.93;5.20;;;15.00;54.20;;;;;;5015712;28;20524;-78
2021/12/10 04:55:19;;;;;;;5.70;4.90;;;15.00;54.20;;;;;;5015334;28;20497;-78
2021/12/10 04:57:47;;;;;;;5.40;4.90;;;14.90;54.20;;;;;;5013514;28;20491;-78
2021/12/10 05:00:17;;;;;;;5.03;4.63;;;15.00;54.30;;;;;;5013966;28;20534;-78
2021/12/10 05:02:45;;;;;;;4.47;4.07;;;15.00;54.20;;;;;;5013584;28;20507;-78
2021/12/10 05:05:13;;;;;;;6.27;5.10;;;15.00;54.10;;;;;;5004229;28;20449;-78
2021/12/10 05:07:42;;;;;;;5.87;5.30;;;15.00;54.10;;;;;;4994209;28;20429;-78
2021/12/10 05:10:13;;;;;;;5.47;4.83;;;15.00;54.10;;;;;;4991411;28;20548;-78
2021/12/10 05:12:43;;;;;;;7.90;4.80;;;15.00;54.00;;;;;;4991452;28;20912;-77
2021/12/10 05:15:13;;;;;;;6.27;4.87;;;15.00;54.10;;;;;;4998002;28;20558;-78
2021/12/10 05:17:41;;;;;;;6.13;4.53;;;15.00;54.10;;;;;;5009911;28;20480;-78
2021/12/10 05:20:12;;;;;;;5.30;4.80;;;15.00;54.20;;;;;;5009484;28;20477;-78
2021/12/10 05:22:41;;;;;;;4.87;4.40;;;15.00;54.10;;;;;;5010390;28;20457;-78
2021/12/10 05:25:09;;;;;;;5.80;5.20;;;15.00;54.20;;;;;;5011177;28;20468;-78
2021/12/10 05:27:37;;;;;;;4.80;4.40;;;15.00;54.10;;;;;;5010731;28;20467;-78
2021/12/10 05:30:08;;;;;;;5.33;4.50;;;15.00;54.20;;;;;;5010636;28;20471;-78
2021/12/10 05:32:36;;;;;;;5.00;4.50;;;15.00;54.20;;;;;;5009026;28;20572;-78
2021/12/10 05:35:04;;;;;;;4.80;4.30;;;14.90;54.10;;;;;;5008465;28;20451;-78
2021/12/10 05:37:32;;;;;;;5.50;4.63;;;14.90;54.20;;;;;;5010913;28;20441;-78
2021/12/10 05:40:00;;;;;;;4.60;4.20;;;15.00;54.20;;;;;;5010829;28;20436;-78
2021/12/10 05:42:28;;;;;;;5.13;4.53;;;15.00;54.20;;;;;;5010370;28;20534;-77
2021/12/10 05:44:56;;;;;;;5.57;4.20;;;15.00;54.30;;;;;;5009990;28;20445;-77
2021/12/10 05:47:25;;;;;;;4.97;4.40;;;15.00;54.30;;;;;;5010346;28;20479;-78
2021/12/10 05:49:53;;;;;;;4.70;4.13;;;15.00;54.20;;;;;;5009971;28;20444;-78
2021/12/10 05:52:20;;;;;;;4.57;4.17;;;15.00;54.20;;;;;;5006524;28;20523;-78
2021/12/10 05:54:50;;;;;;;5.50;4.80;;;15.00;54.20;;;;;;5010550;28;20540;-78
2021/12/10 05:57:18;;;;;;;4.60;4.20;;;15.00;54.20;;;;;;5010442;28;20488;-77
2021/12/10 05:59:46;;;;;;;4.23;3.93;;;14.90;54.10;;;;;;5010292;28;20512;-78
2021/12/10 06:02:14;;;;;;;4.60;4.20;;;15.00;54.30;;;;;;5010120;28;20544;-78
2021/12/10 06:04:43;;;;;;;4.23;3.93;;;15.00;54.20;;;;;;5010659;28;20523;-78
2021/12/10 06:07:11;;;;;;;4.37;3.97;;;15.00;54.20;;;;;;5011105;28;20820;-78
2021/12/10 06:09:39;;;;;;;5.77;4.50;;;15.00;54.20;;;;;;5069436;28;20504;-78
2021/12/10 06:12:08;;;;;;;4.37;3.97;;;15.00;54.20;;;;;;5010004;28;20575;-78
2021/12/10 06:14:35;;;;;;;4.83;4.00;;;15.00;54.30;;;;;;5009810;28;20552;-77
2021/12/10 06:17:04;;;;;;;4.93;4.47;;;14.90;54.20;;;;;;5010320;28;20440;-78
2021/12/10 06:19:32;;;;;;;4.33;3.93;;;15.00;54.40;;;;;;5010167;28;20532;-78
2021/12/10 06:22:01;;;;;;;4.23;3.83;;;14.90;54.30;;;;;;5010101;28;20461;-78
2021/12/10 06:24:29;;;;;;;4.47;4.10;;;15.00;54.40;;;;;;5008139;28;20504;-78
2021/12/10 06:26:57;;;;;;;4.13;3.83;;;14.90;54.20;;;;;;5006230;28;20560;-77
2021/12/10 06:29:25;;;;;;;4.60;4.20;;;15.00;54.30;;;;;;5009735;28;20551;-76
2021/12/10 06:31:54;;;;;;;4.57;4.17;;;15.00;54.40;;;;;;5009964;28;20472;-77
2021/12/10 06:34:22;;;;;;;5.80;4.70;;;14.90;54.40;;;;;;5009838;28;20483;-77
2021/12/10 06:36:50;;;;;;;4.33;3.93;;;14.90;54.30;;;;;;5009824;28;20519;-77
2021/12/10 06:39:20;;;;;;;4.10;3.80;;;14.90;54.40;;;;;;5008282;28;20517;-77
2021/12/10 06:41:50;;;;;;;5.40;4.60;;;14.90;54.40;;;;;;5008160;28;20472;-77
2021/12/10 06:44:17;;;;;;;4.47;4.10;;;14.90;54.40;;;;;;5009851;28;20539;-77
2021/12/10 06:46:46;;;;;;;4.23;3.80;;;14.90;54.40;;;;;;5010032;28;20428;-77
2021/12/10 06:49:14;;;;;;;4.80;4.10;;;14.90;55.00;;;;;;5009686;28;20866;-77
2021/12/10 06:51:42;;;;;;;4.70;4.23;;;14.90;54.40;;;;;;5009438;28;20472;-77
2021/12/10 06:54:10;;;;;;;3.73;3.43;;;14.90;54.50;;;;;;5008933;28;20460;-78
2021/12/10 06:56:40;;;;;;;4.10;3.70;;;15.00;54.50;;;;;;5009487;28;20539;-78
2021/12/10 06:59:09;;;;;;;3.80;3.50;;;14.90;54.30;;;;;;5007783;28;20447;-77
2021/12/10 07:01:39;;;;;;;3.83;3.53;;;15.00;54.40;;;;;;5009504;28;20429;-77
2021/12/10 07:04:11;;;;;;;4.07;3.70;;;14.90;54.30;;;;;;5009407;28;20494;-78
2021/12/10 07:06:40;;;;;;;4.20;3.80;;;15.00;54.50;;;;;;5009207;28;20433;-78
2021/12/10 07:09:13;;;;;;;3.83;3.53;;;14.90;54.30;;;;;;5009381;28;20479;-77
2021/12/10 07:11:43;;;;;;;4.20;3.90;;;14.90;54.40;;;;;;5009263;28;20567;-77
2021/12/10 07:14:10;;;;;;;4.00;3.60;;;14.90;54.50;;;;;;5009150;28;20492;-77
2021/12/10 07:16:39;;;;;;;4.30;4.00;;;14.90;54.30;;;;;;5007238;28;20453;-77
2021/12/10 07:19:07;;;;;;;4.67;4.27;;;14.90;54.50;;;;;;5008914;28;20445;-77
2021/12/10 07:21:35;;;;;;;4.87;4.30;;;14.90;54.30;;;;;;5009433;28;20431;-77
2021/12/10 07:24:05;;;;;;;4.13;3.80;;;14.90;54.50;;;;;;5008991;28;20543;-77
2021/12/10 07:26:34;;;;;;;3.90;3.70;;;14.90;54.50;;;;;;5009165;28;20547;-77
2021/12/10 07:29:04;;;;;;;4.07;3.73;;;14.90;54.40;;;;;;5009057;28;20441;-77
2021/12/10 07:31:32;;;;;;;4.50;3.90;;;14.90;54.40;;;;;;5007137;28;20570;-77
2021/12/10 07:34:00;;;;;;;4.77;4.20;;;14.90;54.50;;;;;;5008286;28;20539;-77
2021/12/10 07:36:28;;;;;;;3.97;3.53;;;14.90;54.40;;;;;;5008821;28;20483;-77
2021/12/10 07:38:57;;;;;;;5.83;3.50;;;14.90;54.40;;;;;;5009065;28;20501;-77
2021/12/10 07:41:25;;;;;;;4.43;4.03;;;14.90;54.40;;;;;;5008790;28;20507;-77
2021/12/10 07:43:53;;;;;;;4.00;3.70;;;14.90;54.50;;;;;;5008869;28;20461;-77
2021/12/10 07:46:23;;;;;;;3.80;3.50;;;14.90;54.40;;;;;;5008702;28;20464;-77
2021/12/10 07:48:52;;;;;;;4.47;4.07;;;14.90;54.50;;;;;;5008020;28;20432;-77
2021/12/10 07:51:21;;;;;;;4.37;3.97;;;14.90;54.50;;;;;;5005154;28;20978;-77
2021/12/10 07:53:51;;;;;;;4.07;3.50;;;14.90;54.60;;;;;;5008663;28;20986;-77
2021/12/10 07:56:19;;;;;;;3.97;3.37;;;14.90;54.40;;;;;;5008682;28;20476;-77
2021/12/10 07:58:47;;;;;;;4.90;3.70;;;14.90;54.60;;;;;;5008561;28;20528;-77
2021/12/10 08:01:17;;;;;;;5.03;4.20;;;14.90;54.50;;;;;;5008713;28;20448;-77
2021/12/10 08:03:49;;;;;;;3.97;3.50;;;14.90;54.50;;;;;;5008795;28;20464;-77
2021/12/10 08:06:17;;;;;;;5.90;3.53;;;14.90;54.50;;;;;;5010434;28;20639;-77
2021/12/10 08:08:47;;;;;;;3.57;3.37;;;14.90;54.60;;;;;;5008336;28;20463;-78
2021/12/10 08:11:14;;;;;;;3.50;3.20;;;15.00;54.60;;;;;;5012315;28;20543;-78
2021/12/10 08:13:43;;;;;;;3.60;3.30;;;15.00;54.60;;;;;;5014754;28;20547;-78
2021/12/10 08:16:11;;;;;;;3.80;3.50;;;15.00;54.50;;;;;;5015305;28;20514;-78
2021/12/10 08:18:39;;;;;;;4.30;3.90;;;15.10;54.50;;;;;;5015145;28;20456;-78
2021/12/10 08:21:09;;;;;;;3.40;3.10;;;15.10;54.50;;;;;;5015543;28;20444;-78
2021/12/10 08:23:37;;;;;;;5.07;3.67;;;15.10;54.40;;;;;;5012946;28;20563;-78
2021/12/10 08:26:05;;;;;;;4.20;3.80;;;15.20;54.50;;;;;;5012043;28;20559;-78
2021/12/10 08:28:34;;;;;;;3.90;3.50;;;15.20;54.40;;;;;;5015071;28;20480;-78
2021/12/10 08:31:04;;;;;;;3.70;3.23;;;15.20;54.40;;;;;;5016297;28;20440;-78
2021/12/10 08:33:32;;;;;;;4.73;3.67;;;15.30;54.40;;;;;;5013859;28;20479;-78
2021/12/10 08:36:02;;;;;;;4.43;3.87;;;15.40;54.50;;;;;;5012039;28;20440;-78
2021/12/10 08:38:31;;;;;;;4.47;4.07;;;15.40;54.40;;;;;;5014162;28;20535;-78
2021/12/10 08:41:00;;;;;;;4.33;4.00;;;15.50;54.50;;;;;;5014037;28;20492;-78
2021/12/10 08:43:29;;;;;;;4.50;4.20;;;15.60;54.50;;;;;;5009720;28;20547;-78
2021/12/10 08:45:57;;;;;;;4.97;3.70;;;15.80;54.50;;;;;;5013500;28;20467;-78
2021/12/10 08:48:26;;;;;;;5.70;3.77;;;15.90;54.40;;;;;;5013608;28;20986;-78
2021/12/10 08:50:55;;;;;;;4.50;4.10;;;16.00;54.40;;;;;;5011286;28;20436;-78
2021/12/10 08:53:22;;;;;;;3.93;3.53;;;16.10;54.30;;;;;;5013277;28;20556;-78
2021/12/10 08:55:53;;;;;;;3.63;3.37;;;16.30;54.40;;;;;;5013167;28;20487;-78
2021/12/10 08:58:21;;;;;;;3.53;3.23;;;16.40;54.30;;;;;;5012687;28;20529;-78
2021/12/10 09:00:50;;;;;;;4.10;3.50;;;16.40;54.00;;;;;;5014683;28;20527;-77
2021/12/10 09:03:38;;;;;;;3.70;3.40;;;16.50;54.00;;;;;;5013310;28;20440;-78
2021/12/10 09:06:07;;;;;;;4.00;3.60;;;16.50;53.80;;;;;;5014802;28;20483;-77
2021/12/10 09:08:36;;;;;;;4.37;3.90;;;16.60;54.00;;;;;;5014489;28;20437;-78
2021/12/10 09:11:06;;;;;;;3.83;3.53;;;16.60;53.90;;;;;;5013691;28;20543;-77
2021/12/10 09:13:34;;;;;;;3.97;3.67;;;16.60;53.80;;;;;;5008548;28;20476;-77
2021/12/10 09:16:04;;;;;;;3.70;3.27;;;16.70;54.00;;;;;;5009465;28;20460;-77
2021/12/10 09:18:33;;;;;;;4.10;3.80;;;16.70;53.90;;;;;;5012164;28;20515;-77
2021/12/10 09:21:01;;;;;;;4.30;3.53;;;16.70;54.00;;;;;;5012529;28;20505;-77
2021/12/10 09:23:30;;;;;;;4.20;3.80;;;16.60;53.90;;;;;;5013187;28;20540;-77
2021/12/10 09:25:59;;;;;;;4.70;4.20;;;16.60;54.00;;;;;;5012553;28;20504;-77
2021/12/10 09:28:28;;;;;;;4.00;3.63;;;16.60;54.10;;;;;;5012641;28;20533;-77
2021/12/10 09:30:57;;;;;;;3.93;3.20;;;16.60;54.00;;;;;;5012168;28;20524;-77
2021/12/10 09:33:26;;;;;;;4.27;3.80;;;16.70;54.20;;;;;;5009258;28;20480;-77
2021/12/10 09:35:54;;;;;;;3.90;3.50;;;16.60;54.10;;;;;;5011667;28;20464;-77
2021/12/10 09:38:23;;;;;;;4.03;3.63;;;16.70;54.20;;;;;;5009156;28;20500;-77
2021/12/10 09:40:53;;;;;;;4.10;3.80;;;16.70;54.20;;;;;;5011397;28;20516;-77
2021/12/10 09:43:21;;;;;;;4.43;3.90;;;16.80;54.20;;;;;;5011922;28;20535;-77
2021/12/10 09:45:51;;;;;;;4.37;3.93;;;16.90;54.30;;;;;;5013445;28;20460;-78
2021/12/10 09:48:20;;;;;;;4.03;3.73;;;16.90;54.20;;;;;;5009172;28;20502;-77
2021/12/10 09:50:49;;;;;;;4.27;3.87;;;17.10;54.40;;;;;;5009449;28;20460;-77
2021/12/10 09:53:17;;;;;;;4.33;3.93;;;17.30;54.30;;;;;;5016401;28;20512;-77
2021/12/10 09:55:46;;;;;;;4.00;3.60;;;17.50;54.30;;;;;;5010039;28;20433;-77
2021/12/10 09:58:14;;;;;;;3.70;3.40;;;17.60;54.20;;;;;;5010124;28;20436;-77
2021/12/10 10:00:43;;;;;;;3.90;3.60;;;17.80;53.90;;;;;;5012396;28;20449;-77
2021/12/10 10:03:13;;;;;;;3.80;3.60;;;18.00;53.90;;;;;;5009105;28;20453;-77
2021/12/10 10:05:43;;;;;;;3.80;3.50;;;18.20;53.90;;;;;;5004808;28;20507;-77
2021/12/10 10:08:12;;;;;;;3.73;3.43;;;18.40;53.60;;;;;;5012926;28;20476;-77
2021/12/10 10:10:41;;;;;;;3.43;3.23;;;18.50;53.40;;;;;;5009864;28;20432;-76
2021/12/10 10:13:10;;;;;;;3.47;3.27;;;18.50;53.10;;;;;;5009682;28;20925;-77
2021/12/10 10:15:40;;;;;;;3.73;3.23;;;18.60;53.30;;;;;;5009783;28;20487;-77
2021/12/10 10:18:09;;;;;;;4.80;3.90;;;18.70;53.20;;;;;;5010043;28;20441;-77
2021/12/10 10:20:41;;;;;;;3.37;3.10;;;18.80;53.20;;;;;;5006691;28;20528;-77
2021/12/10 10:23:09;;;;;;;3.40;3.20;;;18.90;53.00;;;;;;5016427;28;20555;-77
2021/12/10 10:25:37;;;;;;;3.57;3.30;;;19.00;53.10;;;;;;5008755;28;20521;-77
2021/12/10 10:28:08;;;;;;;3.90;3.50;;;19.20;53.20;;;;;;5009098;28;20465;-77
2021/12/10 10:30:38;;;;;;;4.10;3.40;;;19.30;53.00;;;;;;5023672;28;20448;-80
2021/12/10 10:33:07;;;;;;;4.07;3.40;;;19.50;53.60;;;;;;5024669;28;20545;-80
2021/12/10 10:35:38;;;;;;;3.10;2.90;;;19.60;52.90;;;;;;5022434;28;20468;-79
2021/12/10 10:38:08;;;;;;;4.33;3.20;;;19.80;52.80;;;;;;5020733;28;20506;-79
2021/12/10 10:40:38;;;;;;;3.70;3.40;;;19.90;52.70;;;;;;5020866;28;20457;-79
2021/12/10 10:43:06;;;;;;;3.83;3.53;;;20.10;52.70;;;;;;5020941;28;20449;-79
2021/12/10 10:45:42;;;;;;;3.40;3.20;;;20.30;52.60;;;;;;5022739;28;20433;-79
2021/12/10 10:48:11;;;;;;;3.70;3.40;;;20.50;52.50;;;;;;5026036;28;20429;-79
2021/12/10 10:50:50;;;;;;;3.40;3.17;;;20.60;52.20;;;;;;5026242;28;20440;-80
2021/12/10 10:53:20;;;;;;;3.43;3.20;;;20.80;52.10;;;;;;5029829;28;20472;-81
2021/12/10 10:55:51;;;;;;;5.33;3.27;;;20.90;51.80;;;;;;5027151;28;20437;-81
2021/12/10 10:58:21;;;;;;;3.80;3.07;;;21.00;51.90;;;;;;5047191;28;20523;-81
2021/12/10 11:00:58;;;;;;;3.90;3.50;;;21.20;51.80;;;;;;5030380;28;20413;-81
2021/12/10 11:03:47;;;;;;;4.80;3.30;;;21.50;51.80;;;;;;5026340;28;20460;-81
2021/12/10 11:06:16;;;;;;;4.53;3.43;;;21.70;51.70;;;;;;5029924;28;21162;-81
2021/12/10 11:08:47;;;;;;;3.43;3.20;;;21.90;51.50;;;;;;5028753;28;20433;-82
2021/12/10 11:11:16;;;;;;;3.43;3.17;;;22.20;51.20;;;;;;5029017;28;20916;-81
2021/12/10 11:13:44;;;;;;;3.40;2.80;;;22.40;50.80;;;;;;5029186;28;20479;-82
2021/12/10 11:16:15;;;;;;;3.00;2.80;;;22.60;50.70;;;;;;5027620;28;20497;-82
2021/12/10 11:18:47;;;;;;;3.10;2.90;;;22.70;50.40;;;;;;5027490;28;20516;-82
2021/12/10 11:21:16;;;;;;;2.93;2.73;;;22.80;50.30;;;;;;5026595;28;20436;-81
2021/12/10 11:23:46;;;;;;;3.73;3.10;;;22.90;50.10;;;;;;5025488;28;20490;-81
2021/12/10 11:26:14;;;;;;;2.83;2.50;;;23.10;50.30;;;;;;5024986;28;20440;-82
2021/12/10 11:28:42;;;;;;;2.70;2.60;;;23.20;49.90;;;;;;5015014;28;20443;-82
2021/12/10 11:31:13;;;;;;;6.03;3.10;;;23.40;49.70;;;;;;5016568;28;21159;-82
2021/12/10 11:33:44;;;;;;;2.90;2.70;;;23.50;49.40;;;;;;5012447;28;20476;-82
2021/12/10 11:36:13;;;;;;;3.30;3.00;;;23.50;49.50;;;;;;5014204;28;20424;-82
2021/12/10 11:38:44;;;;;;;3.80;2.93;;;23.40;49.50;;;;;;5014007;28;20502;-83
2021/12/10 11:41:14;;;;;;;3.37;3.07;;;23.30;49.20;;;;;;5015140;28;20431;-81
2021/12/10 11:43:52;;;;;;;2.97;2.63;;;23.20;49.30;;;;;;5016602;28;20556;-80
2021/12/10 11:46:47;;;;;;;3.93;3.23;;;23.10;49.50;;;;;;5017206;28;20485;-80
2021/12/10 11:49:18;;;;;;;3.10;2.80;;;23.20;49.80;;;;;;5015810;28;20459;-80
2021/12/10 11:51:48;;;;;;;4.40;2.97;;;23.40;50.00;;;;;;5017329;28;20455;-80
2021/12/10 11:54:19;;;;;;;2.57;2.47;;;23.40;49.50;;;;;;5006928;28;20480;-80
2021/12/10 11:56:50;;;;;;;3.60;3.30;;;23.40;49.80;;;;;;5007427;28;20451;-80
2021/12/10 11:59:19;;;;;;;3.20;2.90;;;23.60;49.90;;;;;;5006916;28;20478;-80
2021/12/10 12:01:50;;;;;;;2.63;2.43;;;23.70;49.80;;;;;;5006877;28;20544;-79
2021/12/10 12:04:21;;;;;;;4.60;2.90;;;23.90;49.70;;;;;;5006210;28;20472;-80
2021/12/10 12:06:51;;;;;;;4.67;2.60;;;24.10;49.50;;;;;;5007985;28;20460;-81
2021/12/10 12:09:37;;;;;;;2.60;2.40;;;24.10;49.80;;;;;;5008375;28;20547;-81
2021/12/10 12:12:10;;;;;;;2.23;2.13;;;24.20;49.20;;;;;;5007992;28;20491;-81
2021/12/10 12:14:50;;;;;;;2.53;2.43;;;24.10;48.90;;;;;;5007820;28;20433;-81
2021/12/10 12:17:35;;;;;;;2.83;2.73;;;24.10;49.00;;;;;;5007670;28;21337;-81
2021/12/10 12:25:42;;;;;;;3.97;2.80;;;24.00;49.20;;;;;;5014828;28;20545;-81
2021/12/10 12:28:38;;;;;;;3.00;2.80;;;23.90;48.80;;;;;;5008188;28;20428;-85
2021/12/10 12:31:27;;;;;;;2.70;2.50;;;23.90;49.30;;;;;;5003985;28;20403;-83
2021/12/10 12:33:58;;;;;;;2.60;2.40;;;23.90;49.40;;;;;;5003721;28;20460;-83
2021/12/10 12:36:28;;;;;;;3.13;2.63;;;24.10;49.50;;;;;;5000385;28;20485;-82
2021/12/10 12:38:59;;;;;;;2.53;2.43;;;24.10;49.30;;;;;;5003686;28;20482;-84
2021/12/10 12:41:35;;;;;;;2.83;2.50;;;24.10;49.30;;;;;;5007493;28;20514;-84
2021/12/10 12:44:20;;;;;;;3.57;2.40;;;24.20;49.30;;;;;;5003530;28;20484;-81
2021/12/10 12:47:12;;;;;;;4.43;2.67;;;24.30;49.30;;;;;;5001773;28;21728;-81
2021/12/10 12:49:58;;;;;;;4.97;2.40;;;24.40;49.00;;;;;;5003077;28;20234;-80
2021/12/10 12:52:29;;;;;;;2.83;2.63;;;24.40;49.20;;;;;;5000279;28;21010;-80
2021/12/10 12:55:12;;;;;;;2.27;2.07;;;24.40;49.10;;;;;;5002836;28;20460;-82
2021/12/10 12:57:42;;;;;;;4.17;2.80;;;24.40;48.90;;;;;;5003013;28;20535;-81
2021/12/10 13:00:34;;;;;;;2.90;2.70;;;24.30;48.70;;;;;;5004434;28;20425;-81
2021/12/10 13:03:10;;;;;;;6.93;3.23;;;24.40;49.00;;;;;;5002901;28;20464;-80
2021/12/10 13:05:49;;;;;;;2.70;2.30;;;24.30;48.80;;;;;;5003059;28;20487;-80
2021/12/10 13:08:33;;;;;;;3.37;2.60;;;24.10;48.60;;;;;;5003376;28;20516;-82
2021/12/10 13:11:11;;;;;;;3.27;2.87;;;23.90;48.70;;;;;;5004563;28;20464;-84